sensor_id;sensor_type;location;lat;lon;timestamp;pressure;altitude;pressure_sealevel;temperature;humidity
71805;BME280;59654;52.216;5.616;2023-02-04T00:00:28;103030.47;;;5.51;88.47
71805;BME280;59654;52.216;5.616;2023-02-04T00:01:00;103026.03;;;5.50;88.26
71805;BME280;59654;52.216;5.616;2023-02-04T00:01:31;103026.88;;;5.47;88.75
71805;BME280;59654;52.216;5.616;2023-02-04T00:02:02;103027.72;;;5.46;88.70
71805;BME280;59654;52.216;5.616;2023-02-04T00:02:33;103018.88;;;5.43;88.78
71805;BME280;59654;52.216;5.616;2023-02-04T00:03:04;103019.78;;;5.43;88.74
71805;BME280;59654;52.216;5.616;2023-02-04T00:03:35;103026.84;;;5.44;89.00
71805;BME280;59654;52.216;5.616;2023-02-04T00:04:06;103019.84;;;5.49;89.69
71805;BME280;59654;52.216;5.616;2023-02-04T00:04:37;103015.47;;;5.50;88.49
71805;BME280;59654;52.216;5.616;2023-02-04T00:05:12;103020.78;;;5.51;88.37
71805;BME280;59654;52.216;5.616;2023-02-04T00:05:44;103016.34;;;5.50;89.00
71805;BME280;59654;52.216;5.616;2023-02-04T00:06:15;103023.47;;;5.53;88.57
71805;BME280;59654;52.216;5.616;2023-02-04T00:06:46;103025.28;;;5.55;88.27
71805;BME280;59654;52.216;5.616;2023-02-04T00:07:17;103027.88;;;5.54;88.46
71805;BME280;59654;52.216;5.616;2023-02-04T00:07:48;103025.28;;;5.55;88.48
71805;BME280;59654;52.216;5.616;2023-02-04T00:08:19;103020.88;;;5.56;88.53
71805;BME280;59654;52.216;5.616;2023-02-04T00:08:50;103023.53;;;5.56;88.81
71805;BME280;59654;52.216;5.616;2023-02-04T00:09:21;103023.50;;;5.54;88.98
71805;BME280;59654;52.216;5.616;2023-02-04T00:09:54;103030.56;;;5.55;88.52
71805;BME280;59654;52.216;5.616;2023-02-04T00:10:25;103019.06;;;5.53;88.97
71805;BME280;59654;52.216;5.616;2023-02-04T00:10:56;103013.72;;;5.50;88.62
71805;BME280;59654;52.216;5.616;2023-02-04T00:11:27;103019.09;;;5.55;88.76
71805;BME280;59654;52.216;5.616;2023-02-04T00:11:58;103024.38;;;5.55;88.55
71805;BME280;59654;52.216;5.616;2023-02-04T00:12:29;103021.69;;;5.53;88.19
71805;BME280;59654;52.216;5.616;2023-02-04T00:13:01;103019.03;;;5.52;88.62
71805;BME280;59654;52.216;5.616;2023-02-04T00:13:33;103019.84;;;5.49;88.43
71805;BME280;59654;52.216;5.616;2023-02-04T00:14:04;103024.31;;;5.52;88.45
71805;BME280;59654;52.216;5.616;2023-02-04T00:14:35;103019.09;;;5.55;88.50
71805;BME280;59654;52.216;5.616;2023-02-04T00:15:07;103015.63;;;5.59;88.30
71805;BME280;59654;52.216;5.616;2023-02-04T00:15:41;103013.00;;;5.62;87.79
71805;BME280;59654;52.216;5.616;2023-02-04T00:16:12;103008.59;;;5.61;88.28
71805;BME280;59654;52.216;5.616;2023-02-04T00:16:45;103022.72;;;5.61;88.08
71805;BME280;59654;52.216;5.616;2023-02-04T00:17:15;103018.34;;;5.63;88.25
71805;BME280;59654;52.216;5.616;2023-02-04T00:17:46;103021.03;;;5.66;88.27
71805;BME280;59654;52.216;5.616;2023-02-04T00:18:17;103012.28;;;5.69;88.34
71805;BME280;59654;52.216;5.616;2023-02-04T00:18:48;103021.13;;;5.71;87.70
71805;BME280;59654;52.216;5.616;2023-02-04T00:19:22;103016.72;;;5.71;87.58
71805;BME280;59654;52.216;5.616;2023-02-04T00:19:53;103021.09;;;5.69;87.33
71805;BME280;59654;52.216;5.616;2023-02-04T00:20:24;103014.06;;;5.70;87.35
71805;BME280;59654;52.216;5.616;2023-02-04T00:21:01;103014.13;;;5.73;88.01
71805;BME280;59654;52.216;5.616;2023-02-04T00:21:32;103022.06;;;5.73;87.85
71805;BME280;59654;52.216;5.616;2023-02-04T00:22:03;103017.66;;;5.73;87.63
71805;BME280;59654;52.216;5.616;2023-02-04T00:22:34;103023.81;;;5.72;87.67
71805;BME280;59654;52.216;5.616;2023-02-04T00:23:06;103021.19;;;5.74;87.58
71805;BME280;59654;52.216;5.616;2023-02-04T00:23:37;103024.72;;;5.74;88.11
71805;BME280;59654;52.216;5.616;2023-02-04T00:24:08;103020.34;;;5.76;87.60
71805;BME280;59654;52.216;5.616;2023-02-04T00:24:39;103016.81;;;5.77;87.67
71805;BME280;59654;52.216;5.616;2023-02-04T00:25:13;103026.53;;;5.78;87.72
71805;BME280;59654;52.216;5.616;2023-02-04T00:25:46;103029.22;;;5.80;87.09
71805;BME280;59654;52.216;5.616;2023-02-04T00:26:17;103021.28;;;5.80;87.33
71805;BME280;59654;52.216;5.616;2023-02-04T00:26:48;103028.34;;;5.81;86.72
71805;BME280;59654;52.216;5.616;2023-02-04T00:27:19;103023.94;;;5.82;86.75
71805;BME280;59654;52.216;5.616;2023-02-04T00:27:50;103025.69;;;5.81;87.37
71805;BME280;59654;52.216;5.616;2023-02-04T00:28:21;103026.56;;;5.80;86.99
71805;BME280;59654;52.216;5.616;2023-02-04T00:28:52;103033.59;;;5.78;87.64
71805;BME280;59654;52.216;5.616;2023-02-04T00:29:23;103031.81;;;5.75;87.24
71805;BME280;59654;52.216;5.616;2023-02-04T00:29:54;103030.88;;;5.73;87.92
71805;BME280;59654;52.216;5.616;2023-02-04T00:30:26;103033.50;;;5.72;87.42
71805;BME280;59654;52.216;5.616;2023-02-04T00:30:57;103032.59;;;5.71;87.48
71805;BME280;59654;52.216;5.616;2023-02-04T00:31:28;103041.44;;;5.72;87.94
71805;BME280;59654;52.216;5.616;2023-02-04T00:32:00;103037.88;;;5.70;87.86
71805;BME280;59654;52.216;5.616;2023-02-04T00:32:31;103038.78;;;5.72;88.13
71805;BME280;59654;52.216;5.616;2023-02-04T00:33:02;103029.09;;;5.72;88.18
71805;BME280;59654;52.216;5.616;2023-02-04T00:33:33;103036.97;;;5.69;87.83
71805;BME280;59654;52.216;5.616;2023-02-04T00:34:04;103035.19;;;5.68;88.09
71805;BME280;59654;52.216;5.616;2023-02-04T00:34:35;103038.66;;;5.64;87.88
71805;BME280;59654;52.216;5.616;2023-02-04T00:35:07;103046.53;;;5.61;88.11
71805;BME280;59654;52.216;5.616;2023-02-04T00:35:39;103038.59;;;5.60;88.23
71805;BME280;59654;52.216;5.616;2023-02-04T00:36:09;103042.06;;;5.57;88.25
71805;BME280;59654;52.216;5.616;2023-02-04T00:36:40;103042.94;;;5.56;88.67
71805;BME280;59654;52.216;5.616;2023-02-04T00:37:12;103038.53;;;5.57;88.85
71805;BME280;59654;52.216;5.616;2023-02-04T00:37:43;103036.72;;;5.54;88.43
71805;BME280;59654;52.216;5.616;2023-02-04T00:38:14;103043.84;;;5.58;88.64
71805;BME280;59654;52.216;5.616;2023-02-04T00:38:45;103039.41;;;5.56;88.57
71805;BME280;59654;52.216;5.616;2023-02-04T00:39:17;103046.41;;;5.54;88.94
71805;BME280;59654;52.216;5.616;2023-02-04T00:39:48;103038.50;;;5.55;88.25
71805;BME280;59654;52.216;5.616;2023-02-04T00:40:19;103049.19;;;5.60;88.37
71805;BME280;59654;52.216;5.616;2023-02-04T00:40:50;103051.88;;;5.64;88.67
71805;BME280;59654;52.216;5.616;2023-02-04T00:41:22;103043.13;;;5.68;88.34
71805;BME280;59654;52.216;5.616;2023-02-04T00:41:53;103037.88;;;5.70;88.34
71805;BME280;59654;52.216;5.616;2023-02-04T00:42:24;103049.38;;;5.72;87.82
71805;BME280;59654;52.216;5.616;2023-02-04T00:42:54;103045.03;;;5.75;88.03
71805;BME280;59654;52.216;5.616;2023-02-04T00:43:28;103039.78;;;5.78;88.24
71805;BME280;59654;52.216;5.616;2023-02-04T00:43:59;103046.81;;;5.78;87.63
71805;BME280;59654;52.216;5.616;2023-02-04T00:44:30;103038.88;;;5.76;87.69
71805;BME280;59654;52.216;5.616;2023-02-04T00:45:01;103048.50;;;5.71;88.27
71805;BME280;59654;52.216;5.616;2023-02-04T00:45:32;103047.56;;;5.69;87.99
71805;BME280;59654;52.216;5.616;2023-02-04T00:46:03;103040.56;;;5.71;88.52
71805;BME280;59654;52.216;5.616;2023-02-04T00:46:34;103048.47;;;5.70;88.33
71805;BME280;59654;52.216;5.616;2023-02-04T00:47:05;103052.00;;;5.70;88.19
71805;BME280;59654;52.216;5.616;2023-02-04T00:47:36;103049.28;;;5.67;88.10
71805;BME280;59654;52.216;5.616;2023-02-04T00:48:07;103047.50;;;5.66;89.03
71805;BME280;59654;52.216;5.616;2023-02-04T00:48:38;103051.84;;;5.63;88.63
71805;BME280;59654;52.216;5.616;2023-02-04T00:49:10;103054.47;;;5.60;89.12
71805;BME280;59654;52.216;5.616;2023-02-04T00:49:41;103054.47;;;5.60;88.97
71805;BME280;59654;52.216;5.616;2023-02-04T00:50:12;103044.81;;;5.63;89.10
71805;BME280;59654;52.216;5.616;2023-02-04T00:50:43;103052.75;;;5.63;88.65
71805;BME280;59654;52.216;5.616;2023-02-04T00:51:15;103052.72;;;5.62;88.87
71805;BME280;59654;52.216;5.616;2023-02-04T00:51:46;103057.13;;;5.61;88.85
71805;BME280;59654;52.216;5.616;2023-02-04T00:52:18;103048.31;;;5.62;88.24
71805;BME280;59654;52.216;5.616;2023-02-04T00:52:48;103054.50;;;5.63;89.33
71805;BME280;59654;52.216;5.616;2023-02-04T00:53:19;103055.44;;;5.66;88.67
71805;BME280;59654;52.216;5.616;2023-02-04T00:53:52;103055.44;;;5.66;88.55
71805;BME280;59654;52.216;5.616;2023-02-04T00:54:22;103051.03;;;5.67;88.57
71805;BME280;59654;52.216;5.616;2023-02-04T00:54:53;103054.53;;;5.64;88.63
71805;BME280;59654;52.216;5.616;2023-02-04T00:55:24;103058.13;;;5.68;88.76
71805;BME280;59654;52.216;5.616;2023-02-04T00:55:55;103053.72;;;5.68;89.01
71805;BME280;59654;52.216;5.616;2023-02-04T00:56:26;103051.03;;;5.65;88.70
71805;BME280;59654;52.216;5.616;2023-02-04T00:56:57;103054.56;;;5.66;88.80
71805;BME280;59654;52.216;5.616;2023-02-04T00:57:28;103056.34;;;5.67;88.66
71805;BME280;59654;52.216;5.616;2023-02-04T00:57:59;103047.56;;;5.69;88.98
71805;BME280;59654;52.216;5.616;2023-02-04T00:58:30;103053.78;;;5.71;89.12
71805;BME280;59654;52.216;5.616;2023-02-04T00:59:01;103051.19;;;5.74;88.86
71805;BME280;59654;52.216;5.616;2023-02-04T00:59:33;103048.56;;;5.76;88.82
71805;BME280;59654;52.216;5.616;2023-02-04T01:00:05;103045.94;;;5.76;88.56
71805;BME280;59654;52.216;5.616;2023-02-04T01:00:36;103044.16;;;5.78;88.87
71805;BME280;59654;52.216;5.616;2023-02-04T01:01:07;103048.56;;;5.77;88.75
71805;BME280;59654;52.216;5.616;2023-02-04T01:01:39;103046.84;;;5.80;88.75
71805;BME280;59654;52.216;5.616;2023-02-04T01:02:10;103043.31;;;5.79;88.37
71805;BME280;59654;52.216;5.616;2023-02-04T01:02:41;103046.81;;;5.78;88.81
71805;BME280;59654;52.216;5.616;2023-02-04T01:03:12;103047.72;;;5.78;88.40
71805;BME280;59654;52.216;5.616;2023-02-04T01:03:44;103049.50;;;5.80;88.16
71805;BME280;59654;52.216;5.616;2023-02-04T01:04:15;103056.53;;;5.79;88.55
71805;BME280;59654;52.216;5.616;2023-02-04T01:04:49;103054.72;;;5.75;88.08
71805;BME280;59654;52.216;5.616;2023-02-04T01:05:21;103058.25;;;5.74;88.79
71805;BME280;59654;52.216;5.616;2023-02-04T01:05:52;103049.34;;;5.70;88.17
71805;BME280;59654;52.216;5.616;2023-02-04T01:06:23;103058.09;;;5.66;88.93
71805;BME280;59654;52.216;5.616;2023-02-04T01:06:54;103062.47;;;5.64;89.31
71805;BME280;59654;52.216;5.616;2023-02-04T01:07:25;103059.78;;;5.63;89.55
71805;BME280;59654;52.216;5.616;2023-02-04T01:07:56;103062.41;;;5.60;89.42
71805;BME280;59654;52.216;5.616;2023-02-04T01:08:29;103061.47;;;5.56;89.32
71805;BME280;59654;52.216;5.616;2023-02-04T01:09:01;103068.50;;;5.56;89.60
71805;BME280;59654;52.216;5.616;2023-02-04T01:09:32;103069.31;;;5.53;90.09
71805;BME280;59654;52.216;5.616;2023-02-04T01:10:05;103070.16;;;5.51;89.94
71805;BME280;59654;52.216;5.616;2023-02-04T01:10:36;103063.06;;;5.48;89.83
71805;BME280;59654;52.216;5.616;2023-02-04T01:11:07;103067.47;;;5.49;90.07
71805;BME280;59654;52.216;5.616;2023-02-04T01:11:38;103066.63;;;5.50;90.36
71805;BME280;59654;52.216;5.616;2023-02-04T01:12:11;103066.69;;;5.53;90.63
71805;BME280;59654;52.216;5.616;2023-02-04T01:12:43;103067.59;;;5.55;90.57
71805;BME280;59654;52.216;5.616;2023-02-04T01:13:14;103070.28;;;5.57;90.47
71805;BME280;59654;52.216;5.616;2023-02-04T01:13:46;103067.63;;;5.57;90.26
71805;BME280;59654;52.216;5.616;2023-02-04T01:14:17;103071.16;;;5.56;89.88
71805;BME280;59654;52.216;5.616;2023-02-04T01:14:48;103065.88;;;5.57;90.59
71805;BME280;59654;52.216;5.616;2023-02-04T01:15:19;103071.97;;;5.53;90.43
71805;BME280;59654;52.216;5.616;2023-02-04T01:15:52;103069.31;;;5.53;90.63
71805;BME280;59654;52.216;5.616;2023-02-04T01:16:23;103062.19;;;5.49;90.21
71805;BME280;59654;52.216;5.616;2023-02-04T01:16:54;103075.28;;;5.41;90.35
71805;BME280;59654;52.216;5.616;2023-02-04T01:17:25;103070.72;;;5.34;90.72
71805;BME280;59654;52.216;5.616;2023-02-04T01:17:57;103069.81;;;5.32;91.09
71805;BME280;59654;52.216;5.616;2023-02-04T01:18:28;103071.63;;;5.35;91.18
71805;BME280;59654;52.216;5.616;2023-02-04T01:18:59;103074.28;;;5.35;90.68
71805;BME280;59654;52.216;5.616;2023-02-04T01:19:30;103072.56;;;5.37;90.95
71805;BME280;59654;52.216;5.616;2023-02-04T01:20:01;103071.72;;;5.39;91.06
71805;BME280;59654;52.216;5.616;2023-02-04T01:20:31;103073.47;;;5.39;90.72
71805;BME280;59654;52.216;5.616;2023-02-04T01:21:03;103072.63;;;5.40;91.28
71805;BME280;59654;52.216;5.616;2023-02-04T01:21:34;103071.72;;;5.39;90.99
71805;BME280;59654;52.216;5.616;2023-02-04T01:22:07;103077.88;;;5.38;91.02
71805;BME280;59654;52.216;5.616;2023-02-04T01:22:38;103064.66;;;5.38;90.94
71805;BME280;59654;52.216;5.616;2023-02-04T01:23:09;103074.34;;;5.38;91.15
71805;BME280;59654;52.216;5.616;2023-02-04T01:23:40;103076.09;;;5.37;90.92
71805;BME280;59654;52.216;5.616;2023-02-04T01:24:11;103071.59;;;5.33;91.19
71805;BME280;59654;52.216;5.616;2023-02-04T01:25:03;103076.06;;;5.36;91.38
71805;BME280;59654;52.216;5.616;2023-02-04T01:25:46;103076.88;;;5.33;91.24
71805;BME280;59654;52.216;5.616;2023-02-04T01:26:18;103085.63;;;5.31;91.31
71805;BME280;59654;52.216;5.616;2023-02-04T01:26:49;103080.31;;;5.31;91.36
71805;BME280;59654;52.216;5.616;2023-02-04T01:27:20;103074.13;;;5.30;91.25
71805;BME280;59654;52.216;5.616;2023-02-04T01:27:51;103083.84;;;5.31;91.65
71805;BME280;59654;52.216;5.616;2023-02-04T01:28:22;103082.13;;;5.32;91.39
71805;BME280;59654;52.216;5.616;2023-02-04T01:28:53;103080.38;;;5.32;91.46
71805;BME280;59654;52.216;5.616;2023-02-04T01:29:24;103082.94;;;5.28;91.48
71805;BME280;59654;52.216;5.616;2023-02-04T01:29:55;103093.47;;;5.26;91.88
71805;BME280;59654;52.216;5.616;2023-02-04T01:30:26;103082.88;;;5.25;91.55
71805;BME280;59654;52.216;5.616;2023-02-04T01:30:59;103089.94;;;5.26;91.96
71805;BME280;59654;52.216;5.616;2023-02-04T01:31:30;103089.09;;;5.27;92.04
71805;BME280;59654;52.216;5.616;2023-02-04T01:32:03;103087.25;;;5.24;91.79
71805;BME280;59654;52.216;5.616;2023-02-04T01:32:34;103086.44;;;5.27;92.34
71805;BME280;59654;52.216;5.616;2023-02-04T01:33:05;103091.72;;;5.27;92.32
71805;BME280;59654;52.216;5.616;2023-02-04T01:33:36;103092.63;;;5.29;91.85
71805;BME280;59654;52.216;5.616;2023-02-04T01:34:07;103093.53;;;5.31;92.22
71805;BME280;59654;52.216;5.616;2023-02-04T01:34:38;103090.88;;;5.29;92.10
71805;BME280;59654;52.216;5.616;2023-02-04T01:35:09;103093.53;;;5.31;92.20
71805;BME280;59654;52.216;5.616;2023-02-04T01:35:46;103097.06;;;5.30;91.97
71805;BME280;59654;52.216;5.616;2023-02-04T01:36:17;103093.50;;;5.28;92.05
71805;BME280;59654;52.216;5.616;2023-02-04T01:36:51;103094.34;;;5.25;92.60
71805;BME280;59654;52.216;5.616;2023-02-04T01:37:22;103104.03;;;5.25;92.77
71805;BME280;59654;52.216;5.616;2023-02-04T01:37:53;103096.09;;;5.25;92.24
71805;BME280;59654;52.216;5.616;2023-02-04T01:38:24;103101.38;;;5.25;92.59
71805;BME280;59654;52.216;5.616;2023-02-04T01:38:55;103104.94;;;5.28;92.57
71805;BME280;59654;52.216;5.616;2023-02-04T01:39:27;103105.88;;;5.30;92.91
71805;BME280;59654;52.216;5.616;2023-02-04T01:39:58;103106.75;;;5.28;92.62
71805;BME280;59654;52.216;5.616;2023-02-04T01:40:30;103103.19;;;5.27;92.37
71805;BME280;59654;52.216;5.616;2023-02-04T01:41:02;103104.09;;;5.28;92.60
71805;BME280;59654;52.216;5.616;2023-02-04T01:41:34;103104.09;;;5.29;92.69
71805;BME280;59654;52.216;5.616;2023-02-04T01:42:07;103101.44;;;5.29;92.69
71805;BME280;59654;52.216;5.616;2023-02-04T01:42:39;103102.28;;;5.25;92.35
71805;BME280;59654;52.216;5.616;2023-02-04T01:43:12;103102.25;;;5.24;92.89
71805;BME280;59654;52.216;5.616;2023-02-04T01:43:44;103106.53;;;5.19;92.59
71805;BME280;59654;52.216;5.616;2023-02-04T01:44:16;103109.16;;;5.17;93.28
71805;BME280;59654;52.216;5.616;2023-02-04T01:44:48;103103.75;;;5.13;93.42
71805;BME280;59654;52.216;5.616;2023-02-04T01:45:19;103112.63;;;5.15;93.16
71805;BME280;59654;52.216;5.616;2023-02-04T01:45:50;103103.75;;;5.13;93.39
71805;BME280;59654;52.216;5.616;2023-02-04T01:46:23;103105.50;;;5.12;93.42
71805;BME280;59654;52.216;5.616;2023-02-04T01:46:54;103105.50;;;5.12;93.74
71805;BME280;59654;52.216;5.616;2023-02-04T01:47:26;103105.53;;;5.14;93.79
71805;BME280;59654;52.216;5.616;2023-02-04T01:47:57;103103.75;;;5.13;93.51
71805;BME280;59654;52.216;5.616;2023-02-04T01:48:32;103112.63;;;5.15;93.70
71805;BME280;59654;52.216;5.616;2023-02-04T01:49:05;103107.31;;;5.15;93.21
71805;BME280;59654;52.216;5.616;2023-02-04T01:49:36;103104.69;;;5.15;93.10
71805;BME280;59654;52.216;5.616;2023-02-04T01:50:12;103102.97;;;5.17;93.57
71805;BME280;59654;52.216;5.616;2023-02-04T01:50:49;103105.50;;;5.11;93.49
71805;BME280;59654;52.216;5.616;2023-02-04T01:51:26;103114.38;;;5.14;93.70
71805;BME280;59654;52.216;5.616;2023-02-04T01:51:59;103115.28;;;5.16;93.24
71805;BME280;59654;52.216;5.616;2023-02-04T01:52:38;103111.78;;;5.17;93.46
71805;BME280;59654;52.216;5.616;2023-02-04T01:53:09;103111.78;;;5.17;93.36
71805;BME280;59654;52.216;5.616;2023-02-04T01:53:42;103112.69;;;5.18;93.33
71805;BME280;59654;52.216;5.616;2023-02-04T01:54:15;103114.41;;;5.16;93.46
71805;BME280;59654;52.216;5.616;2023-02-04T01:54:47;103110.00;;;5.16;93.38
71805;BME280;59654;52.216;5.616;2023-02-04T01:55:23;103106.44;;;5.14;93.25
71805;BME280;59654;52.216;5.616;2023-02-04T01:56:23;103112.56;;;5.12;93.57
71805;BME280;59654;52.216;5.616;2023-02-04T01:56:56;103115.22;;;5.13;93.45
71805;BME280;59654;52.216;5.616;2023-02-04T01:57:27;103106.44;;;5.14;93.40
71805;BME280;59654;52.216;5.616;2023-02-04T01:58:02;103114.41;;;5.16;93.52
71805;BME280;59654;52.216;5.616;2023-02-04T01:58:33;103122.34;;;5.16;93.61
71805;BME280;59654;52.216;5.616;2023-02-04T01:59:11;103117.06;;;5.17;93.30
71805;BME280;59654;52.216;5.616;2023-02-04T01:59:45;103112.72;;;5.19;93.37
71805;BME280;59654;52.216;5.616;2023-02-04T02:00:22;103112.72;;;5.19;93.55
71805;BME280;59654;52.216;5.616;2023-02-04T02:00:55;103117.19;;;5.22;92.67
71805;BME280;59654;52.216;5.616;2023-02-04T02:01:34;103119.81;;;5.22;93.02
71805;BME280;59654;52.216;5.616;2023-02-04T02:02:43;103113.56;;;5.18;92.76
71805;BME280;59654;52.216;5.616;2023-02-04T02:03:16;103108.22;;;5.15;92.72
71805;BME280;59654;52.216;5.616;2023-02-04T02:03:47;103114.44;;;5.17;93.04
71805;BME280;59654;52.216;5.616;2023-02-04T02:04:29;103118.78;;;5.15;93.07
71805;BME280;59654;52.216;5.616;2023-02-04T02:05:06;103112.56;;;5.13;92.93
71805;BME280;59654;52.216;5.616;2023-02-04T02:05:47;103121.41;;;5.14;93.57
71805;BME280;59654;52.216;5.616;2023-02-04T02:06:19;103116.19;;;5.17;93.03
71805;BME280;59654;52.216;5.616;2023-02-04T02:06:54;103122.38;;;5.17;93.13
71805;BME280;59654;52.216;5.616;2023-02-04T02:07:28;103122.44;;;5.20;92.99
71805;BME280;59654;52.216;5.616;2023-02-04T02:08:01;103120.69;;;5.21;93.28
71805;BME280;59654;52.216;5.616;2023-02-04T02:08:33;103129.50;;;5.21;92.91
71805;BME280;59654;52.216;5.616;2023-02-04T02:09:05;103121.56;;;5.21;92.96
71805;BME280;59654;52.216;5.616;2023-02-04T02:09:36;103132.16;;;5.21;92.79
71805;BME280;59654;52.216;5.616;2023-02-04T02:10:11;103125.13;;;5.22;93.12
71805;BME280;59654;52.216;5.616;2023-02-04T02:10:47;103128.69;;;5.24;92.58
71805;BME280;59654;52.216;5.616;2023-02-04T02:11:18;103126.03;;;5.24;92.63
71805;BME280;59654;52.216;5.616;2023-02-04T02:11:51;103124.22;;;5.21;92.55
71805;BME280;59654;52.216;5.616;2023-02-04T02:12:23;103132.94;;;5.17;92.79
71805;BME280;59654;52.216;5.616;2023-02-04T02:12:54;103129.41;;;5.17;92.81
71805;BME280;59654;52.216;5.616;2023-02-04T02:13:25;103132.84;;;5.13;93.26
71805;BME280;59654;52.216;5.616;2023-02-04T02:13:56;103128.38;;;5.08;92.83
71805;BME280;59654;52.216;5.616;2023-02-04T02:14:27;103124.84;;;5.08;93.36
71805;BME280;59654;52.216;5.616;2023-02-04T02:14:59;103122.22;;;5.10;93.23
71805;BME280;59654;52.216;5.616;2023-02-04T02:15:30;103122.25;;;5.13;92.84
71805;BME280;59654;52.216;5.616;2023-02-04T02:16:01;103125.88;;;5.16;93.06
71805;BME280;59654;52.216;5.616;2023-02-04T02:16:33;103129.41;;;5.17;93.18
71805;BME280;59654;52.216;5.616;2023-02-04T02:17:04;103127.66;;;5.17;93.15
71805;BME280;59654;52.216;5.616;2023-02-04T02:17:35;103131.09;;;5.13;93.01
71805;BME280;59654;52.216;5.616;2023-02-04T02:18:07;103125.78;;;5.13;93.29
71805;BME280;59654;52.216;5.616;2023-02-04T02:18:39;103124.03;;;5.14;93.13
71805;BME280;59654;52.216;5.616;2023-02-04T02:19:16;103124.94;;;5.14;93.19
71805;BME280;59654;52.216;5.616;2023-02-04T02:19:54;103125.88;;;5.16;93.40
71805;BME280;59654;52.216;5.616;2023-02-04T02:20:26;103124.97;;;5.16;93.65
71805;BME280;59654;52.216;5.616;2023-02-04T02:21:04;103129.38;;;5.15;93.06
71805;BME280;59654;52.216;5.616;2023-02-04T02:21:44;103122.22;;;5.10;93.31
71805;BME280;59654;52.216;5.616;2023-02-04T02:24:28;103129.44;;;5.18;93.35
71805;BME280;59654;52.216;5.616;2023-02-04T02:25:00;103132.06;;;5.17;93.00
71805;BME280;59654;52.216;5.616;2023-02-04T02:25:32;103133.84;;;5.18;93.05
71805;BME280;59654;52.216;5.616;2023-02-04T02:26:03;103132.13;;;5.20;93.23
71805;BME280;59654;52.216;5.616;2023-02-04T02:26:34;103138.25;;;5.19;93.27
71805;BME280;59654;52.216;5.616;2023-02-04T02:27:08;103132.09;;;5.18;93.10
71805;BME280;59654;52.216;5.616;2023-02-04T02:27:40;103134.75;;;5.20;92.71
71805;BME280;59654;52.216;5.616;2023-02-04T02:28:15;103136.38;;;5.13;93.17
71805;BME280;59654;52.216;5.616;2023-02-04T02:28:50;103137.22;;;5.12;93.08
71805;BME280;59654;52.216;5.616;2023-02-04T02:29:22;103139.84;;;5.09;93.27
71805;BME280;59654;52.216;5.616;2023-02-04T02:29:53;103141.59;;;5.08;93.34
71805;BME280;59654;52.216;5.616;2023-02-04T02:30:26;103142.41;;;5.06;93.32
71805;BME280;59654;52.216;5.616;2023-02-04T02:30:58;103140.63;;;5.05;93.31
71805;BME280;59654;52.216;5.616;2023-02-04T02:31:30;103139.66;;;5.01;93.34
71805;BME280;59654;52.216;5.616;2023-02-04T02:32:02;103139.56;;;4.97;93.84
71805;BME280;59654;52.216;5.616;2023-02-04T02:32:35;103140.41;;;4.94;93.49
71805;BME280;59654;52.216;5.616;2023-02-04T02:33:07;103146.53;;;4.93;94.70
71805;BME280;59654;52.216;5.616;2023-02-04T02:33:38;103137.66;;;4.90;94.63
71805;BME280;59654;52.216;5.616;2023-02-04T02:34:10;103150.00;;;4.91;94.50
71805;BME280;59654;52.216;5.616;2023-02-04T02:34:44;103134.16;;;4.91;94.26
71805;BME280;59654;52.216;5.616;2023-02-04T02:35:17;103139.44;;;4.91;94.55
71805;BME280;59654;52.216;5.616;2023-02-04T02:35:48;103134.16;;;4.91;94.35
71805;BME280;59654;52.216;5.616;2023-02-04T02:36:19;103133.28;;;4.92;94.84
71805;BME280;59654;52.216;5.616;2023-02-04T02:36:56;103136.84;;;4.92;94.51
71805;BME280;59654;52.216;5.616;2023-02-04T02:37:28;103134.19;;;4.92;94.44
71805;BME280;59654;52.216;5.616;2023-02-04T02:38:00;103132.47;;;4.96;94.09
71805;BME280;59654;52.216;5.616;2023-02-04T02:38:31;103136.00;;;4.95;94.20
71805;BME280;59654;52.216;5.616;2023-02-04T02:39:04;103134.22;;;4.94;94.17
71805;BME280;59654;52.216;5.616;2023-02-04T02:39:41;103140.41;;;4.94;94.56
71805;BME280;59654;52.216;5.616;2023-02-04T02:40:14;103138.66;;;4.96;94.45
71805;BME280;59654;52.216;5.616;2023-02-04T02:40:47;103141.28;;;4.95;93.95
71805;BME280;59654;52.216;5.616;2023-02-04T02:41:18;103141.38;;;4.99;93.99
71805;BME280;59654;52.216;5.616;2023-02-04T02:41:49;103130.84;;;5.01;94.26
71805;BME280;59654;52.216;5.616;2023-02-04T02:42:21;103133.50;;;5.02;93.87
71805;BME280;59654;52.216;5.616;2023-02-04T02:42:53;103132.59;;;5.00;93.84
71805;BME280;59654;52.216;5.616;2023-02-04T02:43:26;103132.59;;;5.00;93.78
71805;BME280;59654;52.216;5.616;2023-02-04T02:44:04;103134.41;;;5.03;94.02
71805;BME280;59654;52.216;5.616;2023-02-04T02:44:35;103138.84;;;5.04;93.87
71805;BME280;59654;52.216;5.616;2023-02-04T02:45:17;103142.31;;;5.01;93.35
71805;BME280;59654;52.216;5.616;2023-02-04T02:45:58;103132.50;;;4.97;93.71
71805;BME280;59654;52.216;5.616;2023-02-04T02:46:36;103132.47;;;4.96;93.47
71805;BME280;59654;52.216;5.616;2023-02-04T02:47:14;103133.38;;;4.95;93.56
71805;BME280;59654;52.216;5.616;2023-02-04T02:47:47;103128.94;;;4.94;93.85
71805;BME280;59654;52.216;5.616;2023-02-04T02:48:18;103127.94;;;4.89;93.79
71805;BME280;59654;52.216;5.616;2023-02-04T02:48:50;103129.59;;;4.85;94.29
71805;BME280;59654;52.216;5.616;2023-02-04T02:49:21;103129.50;;;4.81;94.13
71805;BME280;59654;52.216;5.616;2023-02-04T02:49:53;103131.25;;;4.79;94.59
71805;BME280;59654;52.216;5.616;2023-02-04T02:50:28;103128.59;;;4.79;94.33
71805;BME280;59654;52.216;5.616;2023-02-04T02:51:01;103119.81;;;4.81;94.53
71805;BME280;59654;52.216;5.616;2023-02-04T02:51:32;103121.66;;;4.84;94.53
71805;BME280;59654;52.216;5.616;2023-02-04T02:52:03;103117.22;;;4.83;94.13
71805;BME280;59654;52.216;5.616;2023-02-04T02:52:34;103117.25;;;4.84;94.62
71805;BME280;59654;52.216;5.616;2023-02-04T02:53:11;103117.31;;;4.87;94.36
71805;BME280;59654;52.216;5.616;2023-02-04T02:53:45;103120.88;;;4.88;94.38
71805;BME280;59654;52.216;5.616;2023-02-04T02:54:22;103127.97;;;4.90;94.53